»·PEaware :: QFA1511 KLAX-KLAS

QFA1511 :: KLAX-KLAS

FLIGHT INFORMATION

Flight Status: Arrived
Operator:
Qantas Airways
More flights by this operator :: More flights under this callsign
Pilot: Jackson S. (24351)
Aircraft: BOEING 747-400 (WINGLETS)
(B744)
More flights by this aircraft type
Origin: KLAX Los Angeles Intl
United States
Destination: KLAS McCarran Intl
United States
More flights between these airports :: More routes between these airports
Route: +ORCKA2 MISEN KEPEC6
File this flight plan on PilotEdge
Remarks:
Altitude:
(Current/Filed)
35,000ft
Speed:
(Current/Filed)
510kts
Departed: 07-Aug-19 07:27 PM
Arrived: 07-Aug-19 08:18 PM
Distance/Time
Traveled:
205nm/0:51
Distance/Time
To Go:
Arrived

Flight Plot

Page will automatically refresh every two minutes.

Flight plan parsing failed; only flown route is shown


Map Options




Map Legend


Flown Route
Filed Route
Departure Airport
Arrival Airport
Navaid (VOR, NDB)
Fix

Horizontal Profiles

Position Reports

Time Latitude Longitude Heading Altitude Ground
Speed
07-Aug-19 19:06 33.933114 -118.403705 173 114ft 0kts
07-Aug-19 19:07 33.933114 -118.403705 173 114ft 0kts
07-Aug-19 19:08 33.933114 -118.403705 173 114ft 0kts
07-Aug-19 19:09 33.933114 -118.403705 173 114ft 0kts
07-Aug-19 19:10 33.933114 -118.403705 173 114ft 0kts
07-Aug-19 19:11 33.933114 -118.403705 173 114ft 0kts
07-Aug-19 19:12 33.933114 -118.403705 173 114ft 0kts
07-Aug-19 19:13 33.933114 -118.403705 173 114ft 0kts
07-Aug-19 19:14 33.933114 -118.403705 173 114ft 0kts
07-Aug-19 19:15 33.933114 -118.403705 173 114ft 0kts
07-Aug-19 19:16 33.933114 -118.403705 173 114ft 0kts
07-Aug-19 19:17 33.933114 -118.403705 173 114ft 0kts
07-Aug-19 19:18 33.933128 -118.403707 173 114ft 1kts
07-Aug-19 19:19 33.933668 -118.403816 148 114ft 2kts
07-Aug-19 19:20 33.933929 -118.404376 83 114ft 0kts
07-Aug-19 19:21 33.933918 -118.404465 82 114ft 0kts
07-Aug-19 19:22 33.933961 -118.404058 83 114ft 12kts
07-Aug-19 19:23 33.934580 -118.397864 82 114ft 18kts
07-Aug-19 19:24 33.935318 -118.390482 83 114ft 28kts
07-Aug-19 19:25 33.936200 -118.383091 54 114ft 4kts
07-Aug-19 19:26 33.936411 -118.391909 262 115ft 140kts
07-Aug-19 19:27 33.930299 -118.450591 264 3615ft 181kts
07-Aug-19 19:28 33.911557 -118.515926 247 5495ft 214kts
07-Aug-19 19:29 33.863087 -118.552706 167 7386ft 265kts
07-Aug-19 19:30 33.811776 -118.479261 94 7665ft 287kts
07-Aug-19 19:31 33.850980 -118.404579 43 8782ft 280kts
07-Aug-19 19:32 33.908687 -118.340048 43 9976ft 288kts
07-Aug-19 19:33 33.965840 -118.273909 55 11140ft 325kts
07-Aug-19 19:34 34.009372 -118.176178 48 12910ft 340kts
07-Aug-19 19:35 34.072718 -118.088760 51 14645ft 348kts
07-Aug-19 19:36 34.133190 -118.002779 51 16440ft 357kts
07-Aug-19 19:37 34.197966 -117.910443 51 18426ft 369kts
07-Aug-19 19:38 34.265830 -117.813463 51 20434ft 384kts
07-Aug-19 19:39 34.336394 -117.712309 52 22449ft 398kts
07-Aug-19 19:40 34.403575 -117.602391 57 24462ft 412kts
07-Aug-19 19:41 34.472235 -117.486401 58 26748ft 459kts
07-Aug-19 19:42 34.547487 -117.358948 59 29336ft 469kts
07-Aug-19 19:43 34.621537 -117.232964 60 31886ft 465kts
07-Aug-19 19:44 34.695296 -117.107048 62 34452ft 459kts
07-Aug-19 19:45 34.770378 -116.978327 61 33320ft 460kts
07-Aug-19 19:46 34.842716 -116.853931 60 31428ft 438kts
07-Aug-19 19:47 34.911997 -116.734367 59 29731ft 424kts
07-Aug-19 19:48 34.978303 -116.619563 59 28184ft 416kts
07-Aug-19 19:49 35.044732 -116.504195 58 26599ft 406kts
07-Aug-19 19:50 35.113713 -116.391810 48 23642ft 430kts
07-Aug-19 19:51 35.192804 -116.290768 47 22710ft 430kts
07-Aug-19 19:52 35.272118 -116.191086 47 21212ft 402kts
07-Aug-19 19:53 35.343749 -116.100885 46 19057ft 378kts
07-Aug-19 19:54 35.409053 -116.018451 46 16725ft 354kts
07-Aug-19 19:55 35.476082 -115.933622 46 14104ft 338kts
07-Aug-19 19:56 35.538230 -115.854788 45 12983ft 316kts
07-Aug-19 19:57 35.600099 -115.776120 45 12982ft 318kts
07-Aug-19 19:58 35.659550 -115.700349 45 12982ft 318kts
07-Aug-19 19:59 35.721457 -115.621268 45 12982ft 318kts
07-Aug-19 20:00 35.798686 -115.574287 4 12986ft 316kts
07-Aug-19 20:01 35.886972 -115.568282 1 12977ft 316kts
07-Aug-19 20:02 35.969732 -115.536794 41 12305ft 320kts
07-Aug-19 20:03 36.009841 -115.442316 69 10964ft 290kts
07-Aug-19 20:04 36.028518 -115.348537 94 10372ft 285kts
07-Aug-19 20:05 36.022763 -115.260336 97 8980ft 265kts
07-Aug-19 20:06 36.016716 -115.175309 96 8988ft 250kts
07-Aug-19 20:07 36.010848 -115.088965 96 7996ft 244kts
07-Aug-19 20:08 36.007286 -115.009644 94 7206ft 250kts
07-Aug-19 20:09 36.004462 -114.930841 93 5543ft 247kts
07-Aug-19 20:10 36.020353 -114.853396 46 5002ft 205kts
07-Aug-19 20:11 36.069353 -114.837090 315 5322ft 181kts
07-Aug-19 20:12 36.079259 -114.892946 247 6116ft 168kts
07-Aug-19 20:13 36.072316 -114.947650 269 4782ft 162kts
07-Aug-19 20:14 36.073837 -115.003085 267 4053ft 161kts
07-Aug-19 20:15 36.073851 -115.058318 266 3134ft 157kts
07-Aug-19 20:16 36.073621 -115.112522 269 2374ft 155kts
07-Aug-19 20:17 36.073622 -115.149077 269 2104ft 2kts
07-Aug-19 20:18 36.074966 -115.155659 303 2104ft 13kts
07-Aug-19 20:20 36.077377 -115.158196 351 2104ft 0kts
07-Aug-19 20:21 36.078030 -115.157126 86 2104ft 19kts
07-Aug-19 20:22 36.079797 -115.153927 337 2104ft 21kts
07-Aug-19 20:23 36.085771 -115.157407 334 2104ft 8kts
07-Aug-19 20:24 36.086254 -115.158207 240 2104ft 8kts
07-Aug-19 20:25 36.081045 -115.161353 203 2104ft 19kts
07-Aug-19 20:26 36.078069 -115.162250 97 2104ft 12kts

Navigation Log

Ident Type
Flight plan parsing failed, navigation log unavailable